Time;durP1;ratioP1;P1;durP2;ratioP2;P2;SDS_P1;SDS_P2;PMS_P1;PMS_P2;Temp;Humidity;BMP_temperature;BMP_pressure;BME280_temperature;BME280_humidity;BME280_pressure;Samples;Min_cycle;Max_cycle;Signal;HPM_P1;HPM_P2
2022/06/07 00:00:51;;;;;;;9.65;3.88;;;;;;;11.67;65.92;99969.91;6050629;23;20002;-77
2022/06/07 00:03:17;;;;;;;14.20;4.30;;;;;;;11.43;66.31;99936.25;6122171;23;20006;-79
2022/06/07 00:05:43;;;;;;;15.52;4.35;;;;;;;11.53;66.43;99949.19;6121012;23;20018;-78
2022/06/07 00:08:15;;;;;;;13.52;4.18;;;;;;;11.58;66.35;99979.53;6107737;23;20026;-78
2022/06/07 00:10:42;;;;;;;11.73;3.83;;;;;;;11.49;66.13;99973.56;6069594;23;20010;-78
2022/06/07 00:13:10;;;;;;;7.35;3.83;;;;;;;11.37;66.18;99958.91;6096212;23;20045;-77
2022/06/07 00:15:38;;;;;;;11.57;3.95;;;;;;;11.44;66.51;99979.66;6094867;23;20041;-77
2022/06/07 00:18:04;;;;;;;9.20;4.03;;;;;;;11.39;66.54;99983.19;6071922;23;20334;-78
2022/06/07 00:20:30;;;;;;;10.00;3.78;;;;;;;11.28;66.36;99984.16;6095717;23;20121;-78
2022/06/07 00:22:58;;;;;;;8.98;4.35;;;;;;;11.17;66.54;99969.50;6070707;23;20046;-78
2022/06/07 00:25:24;;;;;;;7.28;3.65;;;;;;;11.21;66.32;99984.22;6069934;23;20105;-80
2022/06/07 00:27:50;;;;;;;9.85;3.53;;;;;;;11.17;66.81;99990.31;6070131;23;20022;-78
2022/06/07 00:30:17;;;;;;;10.68;4.32;;;;;;;11.12;67.18;99978.22;6095281;23;20089;-78
2022/06/07 00:32:44;;;;;;;11.00;4.15;;;;;;;11.20;67.24;99985.09;6072181;23;20420;-78
2022/06/07 00:35:11;;;;;;;9.70;3.72;;;;;;;11.07;66.71;99966.09;6047099;23;20018;-78
2022/06/07 00:37:37;;;;;;;7.43;3.55;;;;;;;11.19;67.16;99989.47;6046452;23;20460;-81
2022/06/07 00:40:05;;;;;;;7.30;3.67;;;;;;;11.13;67.09;99990.38;6069798;23;20018;-79
2022/06/07 00:42:31;;;;;;;12.38;4.43;;;;;;;11.15;67.13;99998.16;6095787;23;20062;-79
2022/06/07 00:44:57;;;;;;;11.80;4.07;;;;;;;11.01;66.56;99974.84;6095944;23;20021;-78
2022/06/07 00:47:27;;;;;;;5.95;3.65;;;;;;;11.08;67.20;99989.53;6095708;23;20022;-80
2022/06/07 00:50:20;;;;;;;8.35;4.13;;;;;;;11.12;67.06;99995.59;6093800;23;20025;-79
2022/06/07 00:52:46;;;;;;;11.55;3.80;;;;;;;11.04;67.19;99967.00;6070997;23;20028;-79
2022/06/07 00:55:13;;;;;;;7.53;3.90;;;;;;;11.05;67.00;99978.25;6071385;23;20057;-78
2022/06/07 00:57:46;;;;;;;8.35;3.95;;;;;;;11.14;66.89;99983.41;6071164;23;20018;-77
2022/06/07 01:00:23;;;;;;;9.25;4.38;;;;;;;11.18;67.15;99981.63;6050897;23;20011;-78
2022/06/07 01:02:51;;;;;;;11.50;4.40;;;;;;;11.19;67.19;99983.38;6097965;23;20048;-79
2022/06/07 01:05:18;;;;;;;13.90;4.50;;;;;;;11.14;67.29;99973.84;6094627;23;20018;-78
2022/06/07 01:10:44;;;;;;;13.43;3.97;;;;;;;11.15;66.92;99982.53;6072523;23;20014;-78
2022/06/07 01:13:20;;;;;;;9.23;4.40;;;;;;;11.11;66.97;99976.50;6107713;23;20018;-78
2022/06/07 01:15:48;;;;;;;;;;;;;;;11.17;67.30;99979.91;6111263;23;20041;-79
2022/06/07 01:18:18;;;;;;;7.05;4.03;;;;;;;11.14;67.24;99983.41;6087348;23;20342;-78
2022/06/07 01:20:46;;;;;;;13.65;4.43;;;;;;;11.19;67.29;99983.38;6078643;23;20508;-78
2022/06/07 01:23:12;;;;;;;14.27;4.50;;;;;;;11.13;67.00;99972.16;6103408;23;20029;-76
2022/06/07 01:25:38;;;;;;;13.20;4.03;;;;;;;11.24;67.31;99979.00;6080129;23;20448;-80
2022/06/07 01:28:05;;;;;;;16.75;5.10;;;;;;;11.25;67.52;99973.78;6064164;23;20484;-80
2022/06/07 01:30:31;;;;;;;7.70;4.05;;;;;;;11.32;67.76;99971.97;6097739;23;20002;-79
2022/06/07 01:32:57;;;;;;;8.90;3.67;;;;;;;11.35;67.78;99965.88;6113024;23;20022;-77
2022/06/07 01:35:24;;;;;;;8.65;4.18;;;;;;;11.55;68.02;99989.13;6056781;23;20631;-79
2022/06/07 01:37:50;;;;;;;9.38;4.20;;;;;;;11.65;67.79;99990.75;6098039;23;20445;-78
2022/06/07 01:43:01;;;;;;;7.10;3.83;;;;;;;11.75;67.72;99981.09;6096486;23;20026;-78
2022/06/07 01:45:28;;;;;;;9.00;4.88;;;;;;;11.91;67.46;99992.22;6097078;23;20022;-78
2022/06/07 01:47:55;;;;;;;7.78;3.72;;;;;;;11.88;67.31;99981.81;6071228;23;20113;-78
2022/06/07 01:50:21;;;;;;;5.57;3.55;;;;;;;12.03;67.89;99991.25;6095720;23;20038;-79
2022/06/07 01:52:47;;;;;;;6.78;4.00;;;;;;;12.04;67.72;99983.41;6070952;23;20018;-78
2022/06/07 01:55:19;;;;;;;5.82;3.75;;;;;;;12.14;67.45;99976.31;6024867;23;20065;-77
2022/06/07 01:57:57;;;;;;;5.82;3.88;;;;;;;12.23;67.46;99977.09;6095379;23;20471;-79
2022/06/07 02:00:23;;;;;;;8.05;4.60;;;;;;;12.39;67.62;99994.28;6071769;23;20500;-78
2022/06/07 02:02:50;;;;;;;7.95;4.95;;;;;;;12.32;67.66;99967.41;6071784;23;20026;-79
2022/06/07 02:05:17;;;;;;;10.80;6.05;;;;;;;12.54;67.33;99998.44;6074952;23;20025;-79
2022/06/07 02:08:09;;;;;;;7.70;4.38;;;;;;;12.49;67.13;99968.91;6078369;23;20022;-79
2022/06/07 02:10:38;;;;;;;8.57;5.32;;;;;;;12.66;67.08;99992.16;6078380;23;20018;-78
2022/06/07 02:13:12;;;;;;;6.90;3.70;;;;;;;12.81;66.83;100002.38;6103334;23;20095;-79
2022/06/07 02:15:39;;;;;;;8.85;5.55;;;;;;;12.86;66.88;99988.41;6108526;23;20014;-80
2022/06/07 02:18:06;;;;;;;6.97;3.53;;;;;;;13.02;66.47;100004.69;6052207;23;20018;-81
2022/06/07 02:20:57;;;;;;;13.60;3.58;;;;;;;13.10;66.35;100003.69;6045772;23;20041;-78
2022/06/07 02:23:24;;;;;;;9.35;3.83;;;;;;;13.12;65.91;100003.69;6069875;23;20457;-79
2022/06/07 02:25:54;;;;;;;5.70;3.08;;;;;;;13.22;65.71;99999.16;6045943;23;20021;-81
2022/06/07 02:28:25;;;;;;;4.95;3.05;;;;;;;13.23;65.72;99993.91;6022307;23;20018;-79
2022/06/07 02:30:54;;;;;;;14.80;3.63;;;;;;;13.33;65.20;100001.59;6070675;23;20018;-78
2022/06/07 02:33:22;;;;;;;8.40;4.30;;;;;;;13.37;64.99;99990.19;6095348;23;20022;-78
2022/06/07 02:35:49;;;;;;;5.75;2.90;;;;;;;13.50;64.72;100001.31;6070057;23;20026;-77
2022/06/07 02:38:16;;;;;;;6.03;2.80;;;;;;;13.60;64.35;100002.00;6072057;23;20452;-76
2022/06/07 02:40:45;;;;;;;6.05;3.40;;;;;;;13.62;64.01;99995.88;6071098;23;20515;-79
2022/06/07 02:43:15;;;;;;;4.90;3.00;;;;;;;13.68;63.57;99989.66;6097534;23;20081;-78
2022/06/07 02:45:41;;;;;;;4.70;2.90;;;;;;;13.89;63.29;100008.47;6094715;23;20046;-78
2022/06/07 02:48:09;;;;;;;4.55;2.88;;;;;;;13.81;62.80;99980.69;6070515;23;20412;-78
2022/06/07 02:50:36;;;;;;;6.45;2.78;;;;;;;13.99;62.44;100010.03;6046657;23;20425;-79
2022/06/07 02:53:04;;;;;;;4.35;2.60;;;;;;;14.02;62.08;99999.47;6098600;23;20029;-78
2022/06/07 02:55:33;;;;;;;6.38;2.42;;;;;;;14.21;61.77;100009.59;6070877;23;20044;-77
2022/06/07 02:58:07;;;;;;;3.28;2.42;;;;;;;14.33;61.52;100017.16;6094301;23;20030;-78
2022/06/07 03:00:34;;;;;;;6.18;2.58;;;;;;;14.39;60.93;100003.09;6071600;23;20010;-77
2022/06/07 03:03:01;;;;;;;4.93;2.30;;;;;;;14.51;60.56;100008.06;6077523;23;20030;-79
2022/06/07 03:05:26;;;;;;;6.90;2.70;;;;;;;14.60;60.23;100009.63;6091261;23;20017;-79
2022/06/07 03:07:57;;;;;;;5.90;2.25;;;;;;;14.68;59.87;100010.31;6086658;23;20425;-77
2022/06/07 03:10:25;;;;;;;4.13;2.10;;;;;;;14.75;59.26;100014.53;6058451;23;20479;-78
2022/06/07 03:12:52;;;;;;;5.50;2.05;;;;;;;14.80;59.28;100009.19;6107486;23;20034;-78
2022/06/07 03:15:22;;;;;;;3.22;2.20;;;;;;;14.79;58.49;99998.75;6070086;23;20025;-78
2022/06/07 03:17:48;;;;;;;3.10;1.80;;;;;;;14.92;58.37;100005.41;6070451;23;20345;-78
2022/06/07 03:20:22;;;;;;;6.30;2.13;;;;;;;15.04;57.82;100013.00;6094494;23;20014;-77
2022/06/07 03:22:48;;;;;;;3.53;1.95;;;;;;;15.16;57.66;100021.47;6070145;23;20026;-79
2022/06/07 03:25:14;;;;;;;4.45;2.58;;;;;;;15.27;57.18;100006.34;6069887;23;20475;-76
2022/06/07 03:27:42;;;;;;;8.77;3.42;;;;;;;15.44;56.74;100010.28;6045500;23;20104;-79
2022/06/07 03:30:13;;;;;;;7.47;2.85;;;;;;;15.65;56.33;100019.38;6070502;23;20014;-79
2022/06/07 03:32:43;;;;;;;5.15;2.10;;;;;;;15.82;56.06;100022.41;6069406;23;20014;-77
2022/06/07 03:35:11;;;;;;;4.78;2.08;;;;;;;15.96;55.35;100024.69;6070397;23;20022;-80
2022/06/07 03:37:38;;;;;;;4.13;1.90;;;;;;;16.04;54.75;100027.09;6050260;23;20048;-79
2022/06/07 03:40:11;;;;;;;3.42;2.00;;;;;;;16.17;54.45;100021.47;6074883;23;20018;-80
2022/06/07 03:42:40;;;;;;;3.72;1.55;;;;;;;16.36;53.55;100032.31;6070911;23;20041;-79
2022/06/07 03:45:07;;;;;;;2.92;1.60;;;;;;;16.39;53.26;100027.84;6046357;23;20030;-78
2022/06/07 03:47:35;;;;;;;4.78;1.77;;;;;;;16.51;52.80;100029.25;6093961;23;20018;-77
2022/06/07 03:50:02;;;;;;;2.55;1.80;;;;;;;16.56;52.75;100010.69;6046178;23;20377;-77
2022/06/07 03:52:30;;;;;;;3.72;1.83;;;;;;;16.75;52.19;100024.16;6069051;23;20018;-78
2022/06/07 03:54:56;;;;;;;5.80;2.00;;;;;;;16.89;51.95;100017.59;6069995;23;20022;-77
2022/06/07 03:57:26;;;;;;;6.22;1.90;;;;;;;17.12;51.17;100025.63;6070639;23;20460;-79
2022/06/07 03:59:57;;;;;;;2.42;1.73;;;;;;;17.29;50.69;100035.59;6047488;23;20364;-78
2022/06/07 04:02:24;;;;;;;4.38;1.92;;;;;;;17.43;50.07;100031.69;6070006;23;20022;-79
2022/06/07 04:04:51;;;;;;;3.30;1.90;;;;;;;17.50;49.92;100029.69;6070775;23;20073;-79
2022/06/07 04:10:07;;;;;;;4.10;1.77;;;;;;;17.75;49.16;100027.94;6078841;23;20022;-77
2022/06/07 04:12:47;;;;;;;4.40;1.73;;;;;;;17.83;48.37;100024.16;6095040;23;20049;-78
2022/06/07 04:15:14;;;;;;;7.88;1.80;;;;;;;18.02;47.83;100025.25;6094425;23;20472;-78
2022/06/07 04:17:41;;;;;;;4.80;1.45;;;;;;;18.09;47.41;100025.03;6045785;23;20045;-77
2022/06/07 04:20:30;;;;;;;3.22;1.67;;;;;;;18.13;46.90;100029.28;6074678;23;20038;-77
2022/06/07 04:22:59;;;;;;;4.28;1.60;;;;;;;18.20;46.73;100023.72;6070468;23;20025;-77
2022/06/07 04:25:27;;;;;;;4.57;2.10;;;;;;;18.29;46.31;100019.03;6072468;23;20021;-78
2022/06/07 04:27:55;;;;;;;4.88;2.00;;;;;;;18.51;45.89;100029.59;6098067;23;20022;-78
2022/06/07 04:30:23;;;;;;;2.97;1.80;;;;;;;18.62;45.64;100019.53;6077783;23;20022;-78
2022/06/07 04:32:52;;;;;;;3.47;1.50;;;;;;;18.76;45.13;100026.03;6074073;23;20458;-80
2022/06/07 04:35:24;;;;;;;7.43;1.98;;;;;;;18.81;44.80;100024.06;6095493;23;20097;-79
2022/06/07 04:37:55;;;;;;;3.00;1.38;;;;;;;18.87;44.24;100023.81;6078392;23;20022;-79
2022/06/07 04:40:22;;;;;;;6.18;1.60;;;;;;;18.98;44.01;100027.84;6092957;23;19998;-80
2022/06/07 04:42:49;;;;;;;5.00;1.65;;;;;;;19.11;43.44;100026.41;6092485;23;20480;-80
2022/06/07 04:45:20;;;;;;;;;;;;;;;19.30;43.26;100026.53;6081223;23;20423;-79
2022/06/07 04:48:06;;;;;;;4.60;1.50;;;;;;;19.50;42.79;100025.69;6098056;23;19917;-77
2022/06/07 04:50:36;;;;;;;6.53;1.55;;;;;;;19.51;42.49;100014.22;6071965;23;20022;-78
2022/06/07 04:53:04;;;;;;;4.72;1.80;;;;;;;19.75;42.47;100029.88;6095789;23;20026;-79
2022/06/07 04:55:30;;;;;;;4.38;1.52;;;;;;;19.81;42.01;100019.06;6096021;23;20384;-78
2022/06/07 04:57:57;;;;;;;2.97;1.40;;;;;;;19.86;41.53;100022.38;6071835;23;20464;-79
2022/06/07 05:00:24;;;;;;;6.93;1.38;;;;;;;19.85;41.28;100028.56;6095460;23;20019;-82
2022/06/07 05:02:58;;;;;;;1.33;1.23;;;;;;;19.79;40.85;100022.72;6050074;23;20109;-78
2022/06/07 05:05:26;;;;;;;4.88;1.30;;;;;;;19.90;41.05;100019.63;6047333;23;20036;-81
2022/06/07 05:07:52;;;;;;;3.33;1.50;;;;;;;20.09;40.39;100023.16;6096539;23;20018;-79
2022/06/07 05:10:24;;;;;;;3.53;1.52;;;;;;;20.28;40.33;100019.69;6072661;23;20018;-80
2022/06/07 05:12:58;;;;;;;9.63;1.70;;;;;;;20.44;39.90;100019.84;6075179;23;20023;-79
2022/06/07 05:15:27;;;;;;;4.15;1.55;;;;;;;20.59;39.77;100010.34;6098414;23;20069;-77
2022/06/07 05:18:05;;;;;;;2.90;1.30;;;;;;;20.70;39.24;100018.59;6027470;23;20026;-78
2022/06/07 05:20:34;;;;;;;6.45;1.40;;;;;;;20.82;38.84;100019.00;6073162;23;20093;-78
2022/06/07 05:23:20;;;;;;;2.90;1.30;;;;;;;20.72;38.62;100013.25;6053042;23;20028;-78
2022/06/07 05:26:16;;;;;;;7.95;1.58;;;;;;;20.75;38.50;100013.09;6075344;23;20056;-80
2022/06/07 05:28:43;;;;;;;4.93;1.98;;;;;;;20.81;37.89;100017.28;6060848;23;20461;-78
2022/06/07 05:31:13;;;;;;;6.40;1.45;;;;;;;20.91;37.98;100007.94;6076947;23;20073;-78
2022/06/07 05:33:45;;;;;;;4.88;1.73;;;;;;;21.13;37.76;100009.53;6030681;23;20018;-80
2022/06/07 05:36:11;;;;;;;5.32;1.58;;;;;;;21.19;37.44;100001.31;6076980;23;20062;-77
2022/06/07 05:38:38;;;;;;;9.27;1.88;;;;;;;21.28;37.32;99995.56;6075193;23;20018;-78
2022/06/07 05:41:25;;;;;;;2.25;1.40;;;;;;;21.31;37.14;100005.97;6077150;23;20069;-78
2022/06/07 05:45:19;;;;;;;3.22;1.30;;;;;;;21.13;36.72;99948.69;6057121;23;20014;-79
2022/06/07 05:47:36;;;;;;;3.63;1.45;;;;;;;21.41;36.31;99948.13;6058535;23;20409;-80
2022/06/07 05:50:09;;;;;;;3.75;1.27;;;;;;;22.38;35.44;99946.56;6077349;23;20010;-80
2022/06/07 05:52:42;;;;;;;2.38;1.02;;;;;;;24.55;33.16;99970.00;6075353;23;20453;-78
2022/06/07 05:55:13;;;;;;;6.40;1.40;;;;;;;27.09;30.75;99992.50;6049845;23;20018;-78
2022/06/07 05:57:39;;;;;;;3.10;1.30;;;;;;;29.10;27.72;99983.00;6048387;23;20022;-79
2022/06/07 06:00:11;;;;;;;3.10;1.17;;;;;;;30.83;26.33;99987.75;6104755;23;20022;-80
2022/06/07 06:02:42;;;;;;;2.70;1.17;;;;;;;32.58;24.73;99961.31;6097442;23;20105;-79
2022/06/07 06:05:23;;;;;;;2.50;0.80;;;;;;;34.00;23.22;99971.31;6077699;23;20030;-80
2022/06/07 06:10:40;;;;;;;1.90;0.95;;;;;;;35.77;20.22;99984.66;6100319;23;20024;-80
2022/06/07 06:13:15;;;;;;;3.92;1.17;;;;;;;36.36;19.02;99969.88;6074700;23;20022;-81
2022/06/07 06:15:45;;;;;;;2.78;0.90;;;;;;;37.05;17.88;99977.22;6083134;23;20008;-79
2022/06/07 06:18:11;;;;;;;3.90;1.30;;;;;;;37.80;17.52;99974.59;6092949;23;20084;-78
2022/06/07 06:20:44;;;;;;;4.93;1.10;;;;;;;38.28;16.72;99971.50;6089002;23;20197;-80
2022/06/07 06:23:20;;;;;;;4.55;1.02;;;;;;;39.16;16.57;99968.59;6066092;23;20014;-78
2022/06/07 06:25:49;;;;;;;5.55;1.85;;;;;;;40.28;15.14;99969.66;6088341;23;20464;-81
2022/06/07 06:28:16;;;;;;;6.20;1.70;;;;;;;40.71;14.32;99953.03;6117874;23;20025;-79
2022/06/07 06:30:47;;;;;;;2.97;1.15;;;;;;;41.17;14.04;99956.81;6086771;23;20021;-81
2022/06/07 06:33:27;;;;;;;1.65;1.00;;;;;;;41.69;14.22;99970.56;6071424;23;20105;-81
2022/06/07 06:35:56;;;;;;;1.75;1.10;;;;;;;42.20;12.86;99967.22;6073738;23;20018;-79
2022/06/07 06:38:31;;;;;;;4.70;2.38;;;;;;;42.03;12.85;99964.19;6071710;23;20067;-79
2022/06/07 06:40:59;;;;;;;8.50;7.70;;;;;;;42.62;12.59;99962.16;6069430;23;20037;-80
2022/06/07 06:43:26;;;;;;;8.25;5.35;;;;;;;42.93;12.08;99956.88;6069903;23;20025;-82
2022/06/07 06:46:14;;;;;;;9.65;7.85;;;;;;;43.59;11.88;99971.00;6093351;23;20102;-79
2022/06/07 06:48:45;;;;;;;4.47;2.58;;;;;;;44.05;11.33;99953.19;6070822;23;20104;-81
2022/06/07 06:51:20;;;;;;;4.10;1.70;;;;;;;44.74;10.62;99962.97;6072293;23;20018;-82
2022/06/07 06:53:51;;;;;;;3.08;1.10;;;;;;;45.15;10.58;99963.13;6097743;23;20006;-80
2022/06/07 06:56:33;;;;;;;3.33;1.63;;;;;;;45.23;10.50;99932.56;6099677;23;20044;-82
2022/06/07 06:59:06;;;;;;;3.42;2.30;;;;;;;45.78;10.01;99948.88;6073465;23;20026;-80
2022/06/07 07:01:40;;;;;;;6.10;2.03;;;;;;;45.75;9.53;99909.00;6075846;23;20037;-81
2022/06/07 07:04:15;;;;;;;;;;;;;;;46.23;9.82;99961.03;6074457;23;20018;-81
2022/06/07 07:06:41;;;;;;;17.15;8.93;;;;;;;46.76;9.61;99961.69;6073125;23;19913;-79
2022/06/07 07:09:10;;;;;;;21.92;14.80;;;;;;;47.09;9.53;99945.44;6059779;23;20026;-80
2022/06/07 07:11:44;;;;;;;13.95;8.02;;;;;;;47.50;8.96;99951.53;6085399;23;20025;-81
2022/06/07 07:14:14;;;;;;;11.52;5.60;;;;;;;47.58;8.63;99955.78;6082495;23;20527;-81
2022/06/07 07:16:47;;;;;;;5.97;3.45;;;;;;;47.83;8.49;99949.72;6099955;23;20018;-81
2022/06/07 07:19:47;;;;;;;9.25;3.00;;;;;;;48.11;8.46;99948.66;6073119;23;20014;-80
2022/06/07 07:22:22;;;;;;;4.40;2.17;;;;;;;47.78;8.28;99947.75;6074292;23;20029;-79
2022/06/07 07:24:52;;;;;;;4.03;1.70;;;;;;;48.36;8.05;99938.19;6055332;23;20018;-80
2022/06/07 07:27:26;;;;;;;5.38;1.60;;;;;;;48.89;7.76;99930.06;6081616;23;20093;-80
2022/06/07 07:29:52;;;;;;;8.73;2.63;;;;;;;49.05;7.78;99921.84;6107198;23;20018;-83
2022/06/07 07:32:24;;;;;;;3.63;1.75;;;;;;;48.90;7.56;99926.19;6100842;23;20042;-80
2022/06/07 07:35:03;;;;;;;;;;;;;;;;;;;;;
2022/06/07 07:38:00;;;;;;;1.75;1.60;;;;;;;48.84;7.11;99895.00;6104770;23;20023;-82
2022/06/07 07:40:30;;;;;;;7.40;1.55;;;;;;;49.12;6.88;99939.06;6118891;23;20009;-81
2022/06/07 07:43:00;;;;;;;1.67;1.40;;;;;;;48.81;6.74;99923.13;6065079;23;20081;-80
2022/06/07 07:45:40;;;;;;;6.25;1.35;;;;;;;49.32;6.82;99930.06;6077606;23;20317;-82
2022/06/07 07:48:44;;;;;;;3.72;1.27;;;;;;;49.46;6.70;99918.53;6043114;23;20022;-78
2022/06/07 07:51:25;;;;;;;10.27;2.20;;;;;;;49.89;6.73;99902.66;6064070;23;20070;-80
2022/06/07 07:53:55;;;;;;;4.30;1.30;;;;;;;49.31;6.74;99931.16;6097620;23;20023;-80
2022/06/07 07:56:23;;;;;;;3.20;1.52;;;;;;;49.09;6.86;99917.50;6070146;23;20018;-80
2022/06/07 07:58:50;;;;;;;4.20;1.20;;;;;;;49.20;6.61;99923.91;6117969;23;20006;-80
2022/06/07 08:01:21;;;;;;;2.80;1.20;;;;;;;48.33;6.75;99923.00;6119406;23;20019;-79
2022/06/07 08:03:48;;;;;;;8.57;1.77;;;;;;;48.85;6.63;99913.22;6092878;23;20006;-79
2022/06/07 08:06:30;;;;;;;6.80;1.85;;;;;;;49.18;6.49;99888.28;6119939;23;20007;-84
2022/06/07 08:08:59;;;;;;;5.28;1.15;;;;;;;49.70;6.33;99892.09;6095468;23;20022;-84
2022/06/07 08:11:28;;;;;;;;;;;;;;;50.15;6.14;99922.88;6095321;23;20033;-82
2022/06/07 08:13:58;;;;;;;34.00;5.68;;;;;;;50.31;6.16;99898.00;6071121;23;19937;-84
2022/06/07 08:16:27;;;;;;;3.10;1.67;;;;;;;50.04;6.46;99876.97;6070620;23;20026;-82
2022/06/07 08:19:19;;;;;;;;;;;;;;;;;;;;;
2022/06/07 08:21:48;;;;;;;139.20;19.70;;;;;;;50.32;5.58;99875.59;6078376;23;20014;-83
2022/06/07 08:24:28;;;;;;;4.30;2.28;;;;;;;49.71;5.72;99863.34;6118890;23;20142;-83
2022/06/07 08:26:54;;;;;;;3.50;1.40;;;;;;;49.48;6.12;99905.28;6069637;23;20074;-80
2022/06/07 08:29:20;;;;;;;5.78;1.63;;;;;;;48.93;5.72;99872.38;6068949;23;20445;-82
2022/06/07 08:31:47;;;;;;;3.20;1.40;;;;;;;48.72;6.38;99886.06;6069227;23;20389;-85
2022/06/07 08:40:05;;;;;;;6.88;1.48;;;;;;;49.17;5.91;99858.16;6090834;23;20089;-83
2022/06/07 08:42:42;;;;;;;6.85;1.50;;;;;;;50.04;5.29;99894.34;6115290;23;20045;-84
2022/06/07 08:45:14;;;;;;;;;;;;;;;49.24;5.67;99889.13;6068166;23;20049;-84
2022/06/07 08:48:25;;;;;;;3.05;1.40;;;;;;;48.25;6.17;99819.47;6095872;23;19901;-86
2022/06/07 08:51:18;;;;;;;2.50;1.50;;;;;;;48.59;5.86;99889.28;6046345;23;20794;-84
2022/06/07 08:54:22;;;;;;;4.43;1.75;;;;;;;48.38;5.92;99884.41;6119956;23;20084;-82
2022/06/07 08:56:56;;;;;;;5.20;1.40;;;;;;;47.04;6.32;99814.91;6134385;23;20105;-85
2022/06/07 08:59:29;;;;;;;3.65;1.20;;;;;;;47.02;6.30;99883.13;6171680;23;20013;-85
2022/06/07 09:02:52;;;;;;;3.17;1.08;;;;;;;47.78;5.89;99840.28;6192448;23;20025;-84
2022/06/07 09:05:39;;;;;;;7.35;1.30;;;;;;;48.71;5.87;99876.13;6141577;23;20021;-87
2022/06/07 09:08:12;;;;;;;2.55;1.30;;;;;;;48.36;5.79;99830.63;6179383;23;20020;-87
2022/06/07 09:13:50;;;;;;;4.65;1.38;;;;;;;49.35;6.06;99881.72;6203086;23;20017;-82
2022/06/07 09:16:20;;;;;;;7.20;1.55;;;;;;;49.21;5.83;99875.88;6105274;23;20027;-85
2022/06/07 09:18:52;;;;;;;3.22;1.50;;;;;;;48.42;5.89;99859.91;6176738;23;20017;-86
2022/06/07 09:21:50;;;;;;;7.18;1.42;;;;;;;47.23;5.95;99806.34;6175465;23;20013;-85
2022/06/07 09:25:00;;;;;;;4.63;1.10;;;;;;;47.74;5.96;99872.19;6175727;23;20021;-86
2022/06/07 09:27:38;;;;;;;3.03;1.20;;;;;;;47.27;6.33;99787.38;6159665;23;20005;-81
2022/06/07 09:30:19;;;;;;;3.60;1.58;;;;;;;48.13;6.04;99860.22;6180276;23;20027;-83
2022/06/07 09:33:03;;;;;;;2.85;1.52;;;;;;;48.30;6.19;99806.84;6173283;23;20021;-82
2022/06/07 09:35:43;;;;;;;2.58;1.17;;;;;;;48.96;5.79;99844.25;6157850;23;20427;-83
2022/06/07 09:38:21;;;;;;;3.30;1.33;;;;;;;48.72;5.89;99808.00;6151436;23;20021;-83
2022/06/07 09:40:57;;;;;;;6.00;1.25;;;;;;;47.67;6.26;99846.81;6174459;23;20068;-84
2022/06/07 09:43:42;;;;;;;15.30;4.15;;;;;;;47.07;6.41;99849.34;6197285;23;20021;-82
2022/06/07 09:46:11;;;;;;;20.70;6.43;;;;;;;47.39;6.37;99843.16;6176098;23;20020;-80
2022/06/07 09:48:40;;;;;;;12.18;3.60;;;;;;;47.72;6.09;99846.00;6202068;23;20071;-85
2022/06/07 09:51:19;;;;;;;10.80;3.55;;;;;;;48.19;6.12;99850.88;6198296;23;20076;-83
2022/06/07 09:54:15;;;;;;;7.00;1.88;;;;;;;47.59;5.74;99805.94;6148099;23;20020;-87
2022/06/07 09:56:44;;;;;;;9.52;1.83;;;;;;;47.18;6.07;99848.38;6183629;23;20017;-83
2022/06/07 09:59:32;;;;;;;;;;;;;;;46.85;6.15;99852.09;6171153;23;20017;-83
2022/06/07 10:02:04;;;;;;;2.78;1.35;;;;;;;46.35;6.47;99829.81;6146916;23;19916;-82
2022/06/07 10:04:57;;;;;;;4.40;1.48;;;;;;;46.31;6.25;99839.66;6194070;23;20036;-84
2022/06/07 10:07:48;;;;;;;18.23;2.70;;;;;;;45.77;5.98;99824.44;6151199;23;20071;-85
2022/06/07 10:10:46;;;;;;;3.70;1.42;;;;;;;45.09;6.80;99843.34;6195023;23;20012;-82
2022/06/07 10:13:17;;;;;;;5.63;2.25;;;;;;;45.53;7.16;99834.66;6113060;23;20025;-85
2022/06/07 10:15:59;;;;;;;4.78;1.90;;;;;;;45.61;6.42;99833.41;6175532;23;20028;-82
2022/06/07 10:18:31;;;;;;;4.25;3.50;;;;;;;45.28;6.46;99831.16;6207510;23;20044;-85
2022/06/07 10:21:26;;;;;;;4.45;2.75;;;;;;;45.36;6.88;99831.84;6201926;23;20124;-85
2022/06/07 10:24:22;;;;;;;3.42;2.00;;;;;;;44.22;6.98;99821.84;6200473;23;20012;-82
2022/06/07 10:27:22;;;;;;;4.95;1.42;;;;;;;41.64;7.59;99822.94;6170488;23;20013;-84
2022/06/07 10:30:04;;;;;;;7.37;2.07;;;;;;;39.15;8.80;99821.94;6116347;23;20112;-84
2022/06/07 10:32:43;;;;;;;4.65;1.20;;;;;;;37.10;9.19;99822.97;6175864;23;20009;-85
2022/06/07 10:35:15;;;;;;;3.95;1.10;;;;;;;35.72;10.04;99833.69;6172010;23;20075;-86
2022/06/07 10:38:11;;;;;;;3.20;0.90;;;;;;;34.46;10.95;99835.97;6172643;23;20023;-82
2022/06/07 10:40:45;;;;;;;7.38;5.55;;;;;;;33.38;11.84;99832.13;6170418;23;20017;-83
2022/06/07 10:43:39;;;;;;;6.78;3.53;;;;;;;32.57;11.94;99824.16;6167227;23;20020;-80
2022/06/07 10:46:14;;;;;;;19.15;14.95;;;;;;;31.90;12.53;99828.06;6165198;23;20023;-80
2022/06/07 10:48:49;;;;;;;4.40;3.60;;;;;;;31.18;13.37;99828.69;6144753;23;20017;-84
2022/06/07 10:54:23;;;;;;;15.33;7.97;;;;;;;29.84;14.40;99815.81;6191793;23;20043;-82
2022/06/07 10:57:44;;;;;;;17.27;13.02;;;;;;;29.51;14.81;99838.44;6191269;23;20048;-83
2022/06/07 11:00:31;;;;;;;;;;;;;;;29.01;15.21;99829.31;6142222;23;20036;-80
2022/06/07 11:03:17;;;;;;;5.57;2.63;;;;;;;28.61;15.21;99829.97;6205562;23;20362;-82
2022/06/07 11:11:54;;;;;;;3.22;1.55;;;;;;;26.62;16.48;99725.56;6122819;23;20021;-82
2022/06/07 11:14:59;;;;;;;4.40;1.50;;;;;;;27.08;17.00;99832.41;6190560;23;20074;-78
2022/06/07 11:18:04;;;;;;;6.28;2.28;;;;;;;26.85;17.43;99833.22;6182908;23;20100;-80
2022/06/07 11:21:09;;;;;;;3.83;1.20;;;;;;;26.35;17.51;99812.06;6188336;23;20083;-81
2022/06/07 11:23:58;;;;;;;9.75;1.30;;;;;;;25.91;17.92;99809.03;6164101;23;20362;-80
2022/06/07 11:26:25;;;;;;;6.15;1.45;;;;;;;25.79;18.07;99824.09;6167222;23;20021;-81
2022/06/07 11:28:54;;;;;;;3.70;1.15;;;;;;;25.76;18.18;99832.31;6194228;23;20020;-81
2022/06/07 11:31:43;;;;;;;2.15;0.98;;;;;;;25.59;18.80;99836.19;6196640;23;20032;-80
2022/06/07 11:34:51;;;;;;;2.40;1.35;;;;;;;25.52;18.65;99827.75;6167324;23;20024;-80
2022/06/07 11:37:18;;;;;;;3.03;1.10;;;;;;;25.41;19.04;99833.00;6197792;23;20012;-81
2022/06/07 11:40:02;;;;;;;3.55;1.65;;;;;;;25.19;19.11;99837.16;6167336;23;20038;-80
2022/06/07 11:42:36;;;;;;;3.13;1.67;;;;;;;25.00;19.31;99824.25;6188005;23;20081;-83
2022/06/07 11:45:24;;;;;;;2.97;0.90;;;;;;;24.80;19.05;99807.03;6185356;23;20074;-82
2022/06/07 11:48:14;;;;;;;4.60;1.30;;;;;;;24.66;19.52;99813.25;6162724;23;20055;-83
2022/06/07 11:51:15;;;;;;;8.45;1.80;;;;;;;24.29;19.61;99778.47;6164765;23;20038;-81
2022/06/07 11:54:01;;;;;;;3.42;1.35;;;;;;;24.13;19.48;99774.19;6169732;23;20075;-86
2022/06/07 11:56:40;;;;;;;3.58;0.90;;;;;;;24.36;19.41;99825.84;6142205;23;20081;-90
2022/06/07 11:59:18;;;;;;;1.92;1.10;;;;;;;24.27;19.22;99826.44;6161962;23;20021;-82
2022/06/07 12:05:35;;;;;;;4.95;0.93;;;;;;;24.00;19.77;99821.13;6244896;23;20361;-88
2022/06/07 12:09:09;;;;;;;5.00;1.10;;;;;;;23.90;19.64;99815.53;6178779;23;20012;-79
2022/06/07 12:11:43;;;;;;;2.65;1.23;;;;;;;23.79;19.71;99818.88;6198921;23;20100;-81
2022/06/07 12:14:19;;;;;;;23.25;2.30;;;;;;;23.73;19.84;99817.44;6218804;23;20468;-78
2022/06/07 12:17:01;;;;;;;1.10;0.80;;;;;;;23.35;20.13;99767.63;6249131;23;20020;-80
2022/06/07 12:19:35;;;;;;;1.02;0.70;;;;;;;23.42;19.76;99810.56;6245772;23;20117;-81
2022/06/07 12:22:17;;;;;;;1.08;0.90;;;;;;;23.28;19.62;99811.44;6193187;23;20019;-83
2022/06/07 12:24:56;;;;;;;2.17;1.05;;;;;;;23.20;19.93;99826.94;6196732;23;20012;-80
2022/06/07 12:27:45;;;;;;;1.50;0.80;;;;;;;22.91;19.65;99785.31;6207965;22;20031;-86
2022/06/07 12:30:36;;;;;;;4.25;0.90;;;;;;;22.84;19.75;99790.13;6261141;23;20046;-85
2022/06/07 12:33:42;;;;;;;2.90;0.90;;;;;;;22.24;19.81;99696.44;6205608;23;20072;-84
2022/06/07 12:36:34;;;;;;;5.50;1.45;;;;;;;22.76;19.78;99804.78;6165053;23;20075;-80
2022/06/07 12:39:11;;;;;;;2.95;0.88;;;;;;;21.87;19.95;99680.06;6213876;23;20022;-78
2022/06/07 12:41:52;;;;;;;1.67;0.90;;;;;;;21.92;20.26;99693.91;6227822;23;20016;-79
2022/06/07 12:44:37;;;;;;;2.60;0.98;;;;;;;22.54;20.01;99800.75;6195850;23;20015;-79
2022/06/07 12:47:08;;;;;;;2.97;1.23;;;;;;;21.77;20.04;99689.47;6222879;23;20012;-79